メインページ
METAR-TAF:

METAR-TAF

空港 :

Peace River, アルバータ州, カナダ

緯度: 56-14N, 経度: 117-26W, 海抜: 571m

現時点の気象観測

当レポートは35分前の09:00(UTC)に作成
の風 7kt
気温 -7°C
湿度 79%
気圧 1019 hPa
視程: 24.1km
高度2600ftの雲は散在している
高度16000ftの曇り

METAR: CYPE 140900Z 01007KT 15SM SCT026 OVC160 M07/M10 A3010 RMK SC4AC4 SLP233

時間: 02:35 (09:35 UTC)

予報

当レポートは1時間5分前の08:30(UTC)に作成
予報は14日の 08時(UTC)から 14日の 19時(UTC)まで有効
北/北東の風 6kt
視程: 10km
高度600ftの千切れ雲あり
高度2000ftの曇り
14日の 08時(UTC)から 14日の 10時(UTC)まで一時的に
高度600ftの雲はほとんどない
高度2000ftの雲は散在している
高度20000ftの曇り
14日の 1000時(UTC)から
北/北東の風 6kt
視程: 3.2km
高度600ftの曇り
小雪, 靄
14日の 10時(UTC)から 14日の 19時(UTC)まで一時的に
視程: 10km
高度2000ftの曇り

TAF: CYPE 140830Z 1408/1419 02006KT P6SM BKN006 OVC020 TEMPO 1408/1410 FEW006 SCT020 OVC200 FM141000 02006KT 2SM -SN BR OVC006 TEMPO 1410/1419 P6SM NSW OVC020 RMK NXT FCST BY 141300Z

4,000以上の空港の気象観測と天気予報(METAR報とTAF報)

利用可能な観測所は地図上に黄色い丸と赤い丸で示す。

丸の上にカーソルを重ねると観測所名を参照できる。

次にクリックすると気象観測と天気予報を参照できる。

マップの切り替え:黒色「×」印の緑ボタンをクリックして拡大、「-」印の緑ボタンをクリックして縮小、緑色の三角印をクリックして隣りの地図に切り替え


METAR-TAF: